Time;durP1;ratioP1;P1;durP2;ratioP2;P2;SDS_P1;SDS_P2;PMS_P1;PMS_P2;Temp;Humidity;BMP_temperature;BMP_pressure;BME280_temperature;BME280_humidity;BME280_pressure;Samples;Min_cycle;Max_cycle;Signal;HPM_P1;HPM_P2
2023/07/27 00:00:00;;;;;;;;;;;19.50;96.40;19.80;99466.00;;;;334756;29;96439;-89
2023/07/27 00:00:12;;;;;;;;;;;19.50;96.50;19.70;99468.00;;;;338042;28;83440;-89
2023/07/27 00:00:24;;;;;;;;;;;19.50;96.90;19.70;99468.00;;;;337170;28;95591;-88
2023/07/27 00:00:36;;;;;;;;;;;19.50;96.70;19.70;99468.00;;;;336761;28;83426;-89
2023/07/27 00:00:48;;;;;;;;;;;19.50;96.60;19.80;99473.00;;;;337501;28;93095;-89
2023/07/27 00:00:59;;;;;;;;;;;19.50;96.50;19.90;99469.00;;;;338065;28;82483;-89
2023/07/27 00:01:11;;;;;;;;;;;19.50;96.60;19.70;99475.00;;;;336027;28;97476;-88
2023/07/27 00:01:23;;;;;;;;;;;19.50;96.60;19.60;99468.00;;;;338121;28;82600;-88
2023/07/27 00:01:35;;;;;;;;;;;19.50;96.80;19.70;99471.00;;;;335889;28;96592;-88
2023/07/27 00:01:47;;;;;;;;;;;19.50;96.90;19.60;99473.00;;;;339431;28;82550;-88
2023/07/27 00:01:58;;;;;;;;;;;19.50;97.00;19.60;99475.00;;;;337254;28;96792;-88
2023/07/27 00:02:10;;;;;;;;;;;19.50;96.90;19.70;99468.00;;;;340743;28;82491;-88
2023/07/27 00:02:23;;;;;;;;;;;19.50;96.90;19.70;99473.00;;;;337262;28;95362;-88
2023/07/27 00:02:35;;;;;;;;;;;19.50;96.70;19.80;99471.00;;;;337933;28;83552;-88
2023/07/27 00:02:46;;;;;;;;;;;19.50;96.60;19.80;99468.00;;;;337337;28;96539;-88
2023/07/27 00:02:59;;;;;;;;;;;19.50;96.50;19.70;99470.00;;;;335429;29;83536;-89
2023/07/27 00:03:11;;;;;;;;;;;19.50;96.50;19.70;99474.00;;;;336037;28;96836;-88
2023/07/27 00:03:23;;;;;;;;;;;19.50;96.60;19.70;99467.00;;;;339445;28;82591;-89
2023/07/27 00:03:34;;;;;;;;;;;19.50;96.50;19.70;99468.00;;;;335873;28;97443;-89
2023/07/27 00:03:46;;;;;;;;;;;19.50;96.50;19.60;99464.00;;;;338232;28;82392;-88
2023/07/27 00:03:58;;;;;;;;;;;19.50;96.60;19.70;99471.00;;;;338718;28;95224;-88
2023/07/27 00:04:10;;;;;;;;;;;19.50;96.50;19.80;99470.00;;;;338074;28;83483;-89
2023/07/27 00:04:22;;;;;;;;;;;19.50;96.50;19.60;99469.00;;;;338776;28;95659;-89
2023/07/27 00:04:34;;;;;;;;;;;19.50;96.60;19.60;99472.00;;;;335539;29;83144;-89
2023/07/27 00:04:46;;;;;;;;;;;19.50;96.70;19.60;99466.00;;;;334791;29;95635;-88
2023/07/27 00:04:58;;;;;;;;;;;19.50;96.70;19.60;99469.00;;;;335376;29;82540;-89
2023/07/27 00:05:12;;;;;;;;;;;19.50;96.60;19.60;99470.00;;;;336019;28;96416;-89
2023/07/27 00:05:24;;;;;;;;;;;19.50;96.50;19.60;99471.00;;;;337960;28;83520;-89
2023/07/27 00:05:36;;;;;;;;;;;19.40;96.50;19.60;99475.00;;;;338481;28;94081;-88
2023/07/27 00:05:48;;;;;;;;;;;19.50;96.50;19.60;99469.00;;;;338159;28;83385;-88
2023/07/27 00:06:00;;;;;;;;;;;19.50;96.40;19.60;99475.00;;;;334790;29;96539;-88
2023/07/27 00:06:12;;;;;;;;;;;19.40;96.50;19.60;99468.00;;;;335534;28;83365;-89
2023/07/27 00:06:23;;;;;;;;;;;19.40;96.50;19.60;99472.00;;;;338602;28;96992;-89
2023/07/27 00:06:35;;;;;;;;;;;19.40;96.50;19.60;99462.00;;;;335308;29;82613;-89
2023/07/27 00:06:47;;;;;;;;;;;19.40;96.40;19.80;99465.00;;;;333455;29;96939;-89
2023/07/27 00:06:59;;;;;;;;;;;19.40;96.50;19.80;99471.00;;;;336789;28;83483;-89
2023/07/27 00:07:11;;;;;;;;;;;19.40;96.60;19.80;99465.00;;;;338776;28;95280;-89
2023/07/27 00:07:26;;;;;;;;;;;19.50;96.80;19.70;99470.00;;;;338073;28;83453;-89
2023/07/27 00:07:38;;;;;;;;;;;19.50;96.70;19.60;99466.00;;;;335387;28;96595;-89
2023/07/27 00:07:50;;;;;;;;;;;19.50;96.90;19.70;99470.00;;;;335559;29;83364;-89
2023/07/27 00:08:02;;;;;;;;;;;19.50;96.70;19.80;99466.00;;;;335923;28;95586;-89
2023/07/27 00:08:13;;;;;;;;;;;19.50;96.70;19.80;99469.00;;;;337886;28;82730;-89
2023/07/27 00:08:25;;;;;;;;;;;19.50;96.80;19.70;99468.00;;;;339601;28;95592;-89
2023/07/27 00:08:37;;;;;;;;;;;19.50;96.80;19.60;99466.00;;;;340833;28;82499;-89
2023/07/27 00:08:49;;;;;;;;;;;19.40;96.80;19.60;99471.00;;;;337269;28;96675;-89
2023/07/27 00:09:01;;;;;;;;;;;19.50;96.80;19.70;99470.00;;;;336843;28;82527;-89
2023/07/27 00:09:13;;;;;;;;;;;19.40;96.60;19.60;99463.00;;;;334709;29;95469;-89
2023/07/27 00:09:25;;;;;;;;;;;19.40;96.90;19.60;99472.00;;;;335396;29;82568;-89
2023/07/27 00:09:36;;;;;;;;;;;19.40;96.90;19.60;99466.00;;;;337149;28;97665;-89
2023/07/27 00:09:48;;;;;;;;;;;19.40;96.80;19.50;99464.00;;;;335594;29;82601;-89
2023/07/27 00:10:00;;;;;;;;;;;19.40;97.00;19.60;99474.00;;;;335998;28;96730;-89
2023/07/27 00:10:12;;;;;;;;;;;19.40;96.90;19.50;99467.00;;;;339393;28;83424;-88
2023/07/27 00:10:24;;;;;;;;;;;19.40;96.80;19.60;99468.00;;;;334610;29;96457;-89
2023/07/27 00:10:36;;;;;;;;;;;19.40;96.80;19.60;99473.00;;;;333619;29;83332;-89
2023/07/27 00:10:47;;;;;;;;;;;19.40;96.80;19.60;99468.00;;;;338702;28;95437;-89
2023/07/27 00:10:59;;;;;;;;;;;19.40;96.60;19.60;99466.00;;;;339469;28;83377;-89
2023/07/27 00:11:11;;;;;;;;;;;19.40;96.70;19.60;99466.00;;;;336051;28;96541;-89
2023/07/27 00:11:23;;;;;;;;;;;19.40;96.60;19.60;99468.00;;;;339465;28;83367;-88
2023/07/27 00:11:35;;;;;;;;;;;19.40;96.70;19.50;99468.00;;;;339803;28;96410;-89
2023/07/27 00:11:48;;;;;;;;;;;19.40;97.00;19.40;99471.00;;;;338197;28;83307;-89
2023/07/27 00:12:00;;;;;;;;;;;19.40;97.10;19.50;99466.00;;;;337425;28;92711;-89
2023/07/27 00:12:11;;;;;;;;;;;19.40;97.10;19.40;99468.00;;;;336569;28;82582;-89
2023/07/27 00:12:23;;;;;;;;;;;19.40;97.30;19.40;99474.00;;;;338405;28;96227;-88
2023/07/27 00:12:35;;;;;;;;;;;19.40;97.30;19.50;99466.00;;;;338107;28;83475;-89
2023/07/27 00:12:47;;;;;;;;;;;19.30;97.10;19.50;99466.00;;;;337412;28;96999;-88
2023/07/27 00:12:58;;;;;;;;;;;19.30;97.00;19.50;99470.00;;;;338131;28;83478;-88
2023/07/27 00:13:10;;;;;;;;;;;19.40;96.80;19.50;99461.00;;;;337336;28;96680;-88
2023/07/27 00:13:22;;;;;;;;;;;19.40;96.80;19.60;99472.00;;;;338196;28;82482;-89
2023/07/27 00:13:34;;;;;;;;;;;19.30;96.70;19.60;99464.00;;;;338547;28;94769;-89
2023/07/27 00:13:46;;;;;;;;;;;19.40;96.80;19.70;99467.00;;;;338228;28;82906;-89
2023/07/27 00:13:57;;;;;;;;;;;19.40;96.90;19.70;99461.00;;;;336060;28;94983;-89
2023/07/27 00:14:09;;;;;;;;;;;19.40;97.00;19.60;99462.00;;;;338020;28;83386;-89
2023/07/27 00:14:21;;;;;;;;;;;19.40;97.10;19.50;99469.00;;;;336133;28;93086;-89
2023/07/27 00:14:33;;;;;;;;;;;19.40;97.10;19.60;99468.00;;;;336769;28;83445;-89
2023/07/27 00:14:44;;;;;;;;;;;19.40;97.00;19.60;99461.00;;;;337417;28;96443;-89
2023/07/27 00:14:56;;;;;;;;;;;19.40;97.00;19.60;99467.00;;;;336726;28;82526;-89
2023/07/27 00:15:09;;;;;;;;;;;19.40;97.00;19.60;99457.00;;;;336978;28;96663;-88
2023/07/27 00:15:20;;;;;;;;;;;19.40;96.90;19.60;99460.00;;;;335571;29;83409;-89
2023/07/27 00:15:32;;;;;;;;;;;19.40;96.90;19.70;99460.00;;;;337409;28;97243;-89
2023/07/27 00:15:44;;;;;;;;;;;19.40;96.80;19.70;99455.00;;;;340723;28;83482;-88
2023/07/27 00:15:56;;;;;;;;;;;19.40;96.90;19.70;99467.00;;;;336032;28;94139;-89
2023/07/27 00:16:07;;;;;;;;;;;19.40;96.90;19.60;99467.00;;;;339414;28;82498;-88
2023/07/27 00:16:19;;;;;;;;;;;19.40;96.80;19.70;99460.00;;;;339786;28;95504;-88
2023/07/27 00:16:31;;;;;;;;;;;19.40;96.70;19.70;99460.00;;;;337852;28;83582;-88
2023/07/27 00:16:45;;;;;;;;;;;19.40;96.80;19.60;99459.00;;;;338715;28;93081;-88
2023/07/27 00:16:56;;;;;;;;;;;19.40;96.80;19.60;99466.00;;;;339348;28;82538;-88
2023/07/27 00:17:08;;;;;;;;;;;19.40;96.80;19.60;99459.00;;;;337304;28;94902;-88
2023/07/27 00:17:20;;;;;;;;;;;19.40;96.80;19.70;99465.00;;;;339295;28;83516;-89
2023/07/27 00:17:32;;;;;;;;;;;19.30;96.80;19.80;99469.00;;;;335422;28;96079;-88
2023/07/27 00:17:44;;;;;;;;;;;19.40;96.90;19.70;99465.00;;;;338005;28;82688;-88
2023/07/27 00:17:56;;;;;;;;;;;19.40;96.90;19.60;99468.00;;;;338666;28;96508;-89
2023/07/27 00:18:08;;;;;;;;;;;19.40;97.00;19.60;99463.00;;;;338054;28;83301;-89
2023/07/27 00:18:20;;;;;;;;;;;19.40;97.00;19.60;99463.00;;;;335918;28;96512;-89
2023/07/27 00:18:32;;;;;;;;;;;19.30;97.00;19.50;99467.00;;;;335532;29;82573;-89
2023/07/27 00:18:43;;;;;;;;;;;19.40;97.00;19.40;99464.00;;;;333549;29;93816;-88
2023/07/27 00:18:55;;;;;;;;;;;19.30;97.10;19.50;99463.00;;;;335552;29;82534;-89
2023/07/27 00:19:07;;;;;;;;;;;19.30;96.90;19.60;99466.00;;;;339814;28;94660;-89
2023/07/27 00:19:19;;;;;;;;;;;19.30;96.80;19.50;99461.00;;;;340713;28;83359;-89
2023/07/27 00:19:31;;;;;;;;;;;19.30;96.80;19.60;99462.00;;;;335902;28;97439;-88
2023/07/27 00:19:43;;;;;;;;;;;19.30;96.80;19.60;99460.00;;;;336748;28;83420;-89
2023/07/27 00:19:55;;;;;;;;;;;19.30;96.80;19.60;99458.00;;;;336009;28;96332;-89
2023/07/27 00:20:07;;;;;;;;;;;19.30;96.70;19.60;99459.00;;;;336357;28;83570;-89
2023/07/27 00:20:19;;;;;;;;;;;19.30;96.80;19.50;99462.00;;;;337312;28;96414;-89
2023/07/27 00:20:30;;;;;;;;;;;19.30;96.90;19.50;99460.00;;;;335497;29;83385;-89
2023/07/27 00:20:42;;;;;;;;;;;19.30;96.80;19.60;99462.00;;;;336065;28;96000;-89
2023/07/27 00:20:54;;;;;;;;;;;19.30;96.70;19.50;99463.00;;;;338063;28;83477;-89
2023/07/27 00:21:06;;;;;;;;;;;19.30;96.90;19.50;99458.00;;;;334771;29;96582;-88
2023/07/27 00:21:18;;;;;;;;;;;19.30;97.00;19.50;99462.00;;;;338119;28;83489;-89
2023/07/27 00:21:29;;;;;;;;;;;19.30;97.00;19.50;99461.00;;;;337227;28;96335;-88
2023/07/27 00:21:41;;;;;;;;;;;19.30;97.40;19.40;99460.00;;;;338004;28;83535;-89
2023/07/27 00:21:53;;;;;;;;;;;19.30;97.20;19.50;99453.00;;;;337332;28;96935;-89
2023/07/27 00:22:05;;;;;;;;;;;19.30;97.00;19.60;99454.00;;;;338188;28;83379;-89
2023/07/27 00:22:17;;;;;;;;;;;19.30;97.20;19.60;99452.00;;;;337291;28;96727;-89
2023/07/27 00:22:29;;;;;;;;;;;19.30;96.90;19.60;99455.00;;;;336619;28;83560;-89
2023/07/27 00:22:41;;;;;;;;;;;19.30;96.90;19.70;99456.00;;;;337344;28;95238;-89
2023/07/27 00:22:53;;;;;;;;;;;19.30;97.10;19.60;99458.00;;;;337974;28;83442;-89
2023/07/27 00:23:04;;;;;;;;;;;19.30;97.10;19.60;99464.00;;;;335899;28;92742;-89
2023/07/27 00:23:16;;;;;;;;;;;19.30;97.10;19.60;99455.00;;;;335518;29;82529;-89
2023/07/27 00:23:28;;;;;;;;;;;19.30;97.00;19.60;99458.00;;;;335959;28;96021;-89
2023/07/27 00:23:40;;;;;;;;;;;19.30;97.00;19.60;99458.00;;;;336901;28;83278;-89
2023/07/27 00:23:51;;;;;;;;;;;19.30;97.00;19.60;99456.00;;;;336015;28;96474;-89
2023/07/27 00:24:04;;;;;;;;;;;19.30;96.90;19.60;99449.00;;;;339498;28;83381;-89
2023/07/27 00:24:15;;;;;;;;;;;19.30;97.00;19.70;99452.00;;;;337194;28;96553;-88
2023/07/27 00:24:27;;;;;;;;;;;19.30;97.00;19.70;99454.00;;;;338017;28;83443;-88
2023/07/27 00:24:39;;;;;;;;;;;19.30;97.00;19.60;99444.00;;;;337139;28;94479;-89
2023/07/27 00:24:51;;;;;;;;;;;19.30;97.20;19.60;99454.00;;;;335422;28;83433;-89
2023/07/27 00:25:04;;;;;;;;;;;19.30;97.00;19.50;99452.00;;;;334742;29;95398;-89
2023/07/27 00:25:16;;;;;;;;;;;19.30;96.90;19.50;99457.00;;;;336813;28;83409;-89
2023/07/27 00:25:28;;;;;;;;;;;19.30;97.20;19.50;99461.00;;;;338518;28;98326;-89
2023/07/27 00:25:40;;;;;;;;;;;19.30;97.10;19.50;99457.00;;;;339509;28;82529;-89
2023/07/27 00:25:51;;;;;;;;;;;19.30;97.10;19.50;99456.00;;;;337273;28;96599;-89
2023/07/27 00:26:03;;;;;;;;;;;19.30;97.00;19.60;99451.00;;;;335461;29;82520;-89
2023/07/27 00:26:15;;;;;;;;;;;19.30;96.90;19.60;99458.00;;;;338631;28;95695;-89
2023/07/27 00:26:27;;;;;;;;;;;19.30;96.80;19.60;99451.00;;;;338171;28;83360;-88
2023/07/27 00:26:41;;;;;;;;;;;19.30;96.80;19.60;99451.00;;;;336008;28;96330;-89
2023/07/27 00:26:53;;;;;;;;;;;19.30;96.80;19.60;99455.00;;;;339387;28;82517;-88
2023/07/27 00:27:05;;;;;;;;;;;19.30;96.80;19.60;99449.00;;;;335911;28;96175;-89
2023/07/27 00:27:17;;;;;;;;;;;19.30;96.90;19.60;99451.00;;;;336813;28;83448;-89
2023/07/27 00:27:28;;;;;;;;;;;19.30;97.00;19.60;99449.00;;;;338569;28;96843;-89
2023/07/27 00:27:40;;;;;;;;;;;19.30;97.10;19.60;99446.00;;;;336787;28;83584;-89
2023/07/27 00:27:52;;;;;;;;;;;19.30;97.00;19.60;99450.00;;;;335852;28;96412;-89
2023/07/27 00:28:04;;;;;;;;;;;19.30;96.90;19.60;99453.00;;;;336689;28;83441;-89
2023/07/27 00:28:16;;;;;;;;;;;19.30;97.20;19.50;99450.00;;;;338554;28;95482;-89
2023/07/27 00:28:27;;;;;;;;;;;19.30;97.10;19.50;99443.00;;;;338146;28;83380;-89
2023/07/27 00:28:39;;;;;;;;;;;19.30;97.30;19.40;99453.00;;;;334632;28;96551;-89
2023/07/27 00:28:51;;;;;;;;;;;19.30;97.30;19.50;99455.00;;;;336725;28;83536;-89
2023/07/27 00:29:03;;;;;;;;;;;19.30;97.30;19.50;99453.00;;;;338598;28;96538;-89
2023/07/27 00:29:15;;;;;;;;;;;19.30;97.10;19.40;99449.00;;;;338242;28;83529;-90
2023/07/27 00:29:26;;;;;;;;;;;19.30;97.20;19.40;99454.00;;;;336053;28;95832;-89
2023/07/27 00:29:38;;;;;;;;;;;19.30;97.10;19.40;99444.00;;;;339322;28;82940;-88
2023/07/27 00:29:50;;;;;;;;;;;19.20;97.00;19.50;99452.00;;;;337330;28;95726;-89
2023/07/27 00:30:02;;;;;;;;;;;19.20;96.90;19.50;99456.00;;;;338112;28;82576;-89
2023/07/27 00:30:14;;;;;;;;;;;19.20;97.00;19.50;99446.00;;;;335954;28;96260;-89
2023/07/27 00:30:26;;;;;;;;;;;19.20;97.00;19.60;99451.00;;;;338123;28;83437;-89
2023/07/27 00:30:37;;;;;;;;;;;19.30;97.00;19.50;99454.00;;;;337305;28;96034;-89
2023/07/27 00:30:53;;;;;;;;;;;19.30;97.10;19.30;99449.00;;;;336575;28;83274;-88
2023/07/27 00:31:05;;;;;;;;;;;19.20;97.20;19.30;99456.00;;;;336033;28;93318;-89
2023/07/27 00:31:16;;;;;;;;;;;19.20;97.30;19.40;99459.00;;;;338095;28;83458;-89
2023/07/27 00:31:28;;;;;;;;;;;19.20;97.20;19.30;99456.00;;;;333445;29;96021;-89
2023/07/27 00:31:40;;;;;;;;;;;19.20;97.30;19.20;99451.00;;;;335458;29;82577;-89
2023/07/27 00:31:52;;;;;;;;;;;19.20;97.40;19.10;99450.00;;;;334667;29;96436;-89
2023/07/27 00:32:04;;;;;;;;;;;19.20;97.30;19.10;99456.00;;;;336821;28;83422;-89
2023/07/27 00:32:16;;;;;;;;;;;19.20;97.40;19.00;99456.00;;;;334693;29;95580;-89
2023/07/27 00:32:28;;;;;;;;;;;19.20;97.50;19.00;99451.00;;;;334199;29;83419;-89
2023/07/27 00:32:39;;;;;;;;;;;19.20;97.60;19.20;99456.00;;;;337294;28;96403;-89
2023/07/27 00:32:51;;;;;;;;;;;19.20;97.60;19.40;99453.00;;;;336731;28;83455;-89
2023/07/27 00:33:03;;;;;;;;;;;19.20;97.50;19.20;99452.00;;;;336067;28;96363;-89
2023/07/27 00:33:15;;;;;;;;;;;19.20;97.70;19.20;99453.00;;;;339483;28;82526;-89
2023/07/27 00:33:27;;;;;;;;;;;19.20;97.60;19.30;99446.00;;;;334712;29;96598;-89
2023/07/27 00:33:39;;;;;;;;;;;19.20;97.50;19.40;99456.00;;;;334134;29;83516;-89
2023/07/27 00:33:50;;;;;;;;;;;19.20;97.40;19.40;99448.00;;;;334619;29;95581;-89
2023/07/27 00:34:04;;;;;;;;;;;19.20;97.40;19.50;99451.00;;;;335536;29;82428;-89
2023/07/27 00:34:17;;;;;;;;;;;19.20;97.40;19.40;99447.00;;;;335887;28;96630;-89
2023/07/27 00:34:28;;;;;;;;;;;19.20;97.50;19.40;99454.00;;;;338239;28;83716;-89
2023/07/27 00:34:40;;;;;;;;;;;19.20;97.50;19.50;99454.00;;;;335968;28;96906;-89
2023/07/27 00:34:52;;;;;;;;;;;19.20;97.50;19.50;99449.00;;;;336623;28;83393;-89
2023/07/27 00:35:05;;;;;;;;;;;19.10;97.40;19.20;99450.00;;;;336077;28;95618;-89
2023/07/27 00:35:17;;;;;;;;;;;19.20;97.50;19.40;99449.00;;;;339502;28;82413;-89
2023/07/27 00:35:29;;;;;;;;;;;19.20;97.40;19.50;99447.00;;;;335750;28;96551;-88
2023/07/27 00:35:40;;;;;;;;;;;19.20;97.50;19.30;99444.00;;;;336798;28;83487;-89
2023/07/27 00:35:58;;;;;;;;;;;19.20;97.50;19.10;99452.00;;;;335941;28;96464;-89
2023/07/27 00:36:10;;;;;;;;;;;19.10;97.50;19.00;99441.00;;;;336812;28;82555;-89
2023/07/27 00:36:22;;;;;;;;;;;19.10;97.40;18.90;99447.00;;;;334650;29;96307;-90
2023/07/27 00:36:33;;;;;;;;;;;19.10;97.50;18.80;99449.00;;;;336639;28;83532;-89
2023/07/27 00:36:46;;;;;;;;;;;19.10;97.60;18.80;99444.00;;;;336054;28;94045;-89
2023/07/27 00:36:58;;;;;;;;;;;19.10;97.60;18.90;99448.00;;;;336554;28;83555;-89
2023/07/27 00:37:09;;;;;;;;;;;19.10;97.80;18.80;99445.00;;;;334806;29;93471;-89
2023/07/27 00:37:22;;;;;;;;;;;19.00;97.70;18.80;99449.00;;;;336866;28;82373;-89
2023/07/27 00:37:34;;;;;;;;;;;19.00;97.70;18.80;99449.00;;;;335877;28;96543;-89
2023/07/27 00:37:45;;;;;;;;;;;19.00;97.70;18.90;99442.00;;;;336771;28;82437;-89
2023/07/27 00:37:57;;;;;;;;;;;19.00;97.80;18.90;99449.00;;;;337290;28;96331;-88
2023/07/27 00:38:09;;;;;;;;;;;19.00;97.80;18.90;99452.00;;;;336595;28;83425;-88
2023/07/27 00:38:20;;;;;;;;;;;19.00;97.70;18.90;99444.00;;;;334616;29;96603;-89
2023/07/27 00:38:32;;;;;;;;;;;19.00;97.70;18.90;99451.00;;;;332920;29;83440;-88
2023/07/27 00:38:44;;;;;;;;;;;19.00;97.80;18.90;99450.00;;;;333419;29;96618;-89
2023/07/27 00:38:56;;;;;;;;;;;19.00;97.70;18.80;99449.00;;;;334085;29;83889;-89
2023/07/27 00:39:08;;;;;;;;;;;19.00;97.80;18.80;99450.00;;;;336083;28;94707;-89
2023/07/27 00:39:20;;;;;;;;;;;19.00;97.80;19.00;99452.00;;;;338101;28;83379;-89
2023/07/27 00:39:32;;;;;;;;;;;18.90;97.70;19.00;99442.00;;;;335923;28;93653;-89
2023/07/27 00:39:44;;;;;;;;;;;18.90;97.80;19.00;99443.00;;;;339342;28;83387;-89
2023/07/27 00:39:55;;;;;;;;;;;19.00;97.80;19.00;99447.00;;;;337351;28;94243;-88
2023/07/27 00:40:07;;;;;;;;;;;18.90;97.80;19.00;99447.00;;;;335564;29;82413;-89
2023/07/27 00:40:19;;;;;;;;;;;18.90;97.70;19.00;99443.00;;;;333462;29;95316;-89
2023/07/27 00:40:32;;;;;;;;;;;18.90;97.60;19.00;99447.00;;;;338003;28;83550;-89
2023/07/27 00:40:46;;;;;;;;;;;18.90;97.60;18.90;99449.00;;;;337921;28;97049;-89
2023/07/27 00:40:58;;;;;;;;;;;18.90;97.70;18.90;99449.00;;;;339314;28;82634;-89
2023/07/27 00:41:10;;;;;;;;;;;18.90;97.90;18.90;99446.00;;;;338750;28;95835;-89
2023/07/27 00:41:22;;;;;;;;;;;18.90;98.00;18.80;99444.00;;;;336864;28;83473;-88
2023/07/27 00:41:34;;;;;;;;;;;18.90;98.00;18.80;99437.00;;;;337272;28;96128;-89
2023/07/27 00:41:45;;;;;;;;;;;18.90;98.00;19.00;99442.00;;;;339438;28;82363;-89
2023/07/27 00:41:57;;;;;;;;;;;18.90;97.80;19.00;99432.00;;;;338621;28;95544;-89
2023/07/27 00:42:09;;;;;;;;;;;18.90;97.80;19.10;99450.00;;;;339454;28;82367;-89
2023/07/27 00:42:21;;;;;;;;;;;18.90;97.80;19.10;99435.00;;;;338698;28;92952;-89
2023/07/27 00:42:32;;;;;;;;;;;18.80;97.90;19.20;99441.00;;;;338067;28;83394;-89
2023/07/27 00:42:45;;;;;;;;;;;18.90;97.80;19.20;99443.00;;;;334734;29;95543;-89
2023/07/27 00:42:56;;;;;;;;;;;18.90;97.90;19.20;99442.00;;;;337923;28;83525;-89
2023/07/27 00:43:08;;;;;;;;;;;18.90;97.90;19.20;99440.00;;;;338678;28;97102;-89
2023/07/27 00:43:20;;;;;;;;;;;18.90;97.80;19.10;99446.00;;;;339352;28;82529;-89
2023/07/27 00:43:32;;;;;;;;;;;18.90;97.80;19.10;99446.00;;;;335805;28;96633;-89
2023/07/27 00:43:43;;;;;;;;;;;18.90;97.90;19.10;99446.00;;;;336838;28;83475;-89
2023/07/27 00:43:55;;;;;;;;;;;18.90;97.80;19.10;99441.00;;;;338640;28;93775;-89
2023/07/27 00:44:07;;;;;;;;;;;18.90;97.90;19.10;99448.00;;;;338102;28;83454;-88
2023/07/27 00:44:19;;;;;;;;;;;18.90;98.00;19.00;99440.00;;;;337355;28;96599;-88
2023/07/27 00:44:31;;;;;;;;;;;18.90;97.90;19.00;99446.00;;;;338064;28;82514;-89
2023/07/27 00:44:42;;;;;;;;;;;18.90;98.10;19.10;99445.00;;;;334813;29;96603;-89
2023/07/27 00:44:54;;;;;;;;;;;18.90;98.00;19.10;99442.00;;;;335364;29;82541;-89
2023/07/27 00:45:07;;;;;;;;;;;18.90;97.90;19.10;99439.00;;;;337283;28;96866;-89
2023/07/27 00:45:18;;;;;;;;;;;18.90;97.90;19.10;99443.00;;;;336742;28;83425;-89
2023/07/27 00:45:31;;;;;;;;;;;18.80;97.90;18.90;99443.00;;;;337208;28;96645;-89
2023/07/27 00:45:42;;;;;;;;;;;18.80;98.00;19.00;99441.00;;;;338126;28;83443;-89
2023/07/27 00:45:54;;;;;;;;;;;18.80;98.00;19.10;99446.00;;;;335886;28;96153;-89
2023/07/27 00:46:06;;;;;;;;;;;18.80;98.00;19.00;99442.00;;;;336741;28;83520;-89
2023/07/27 00:46:18;;;;;;;;;;;18.90;98.20;19.00;99449.00;;;;338437;28;96893;-89
2023/07/27 00:46:30;;;;;;;;;;;18.80;98.10;19.10;99439.00;;;;340776;28;83264;-89
2023/07/27 00:46:42;;;;;;;;;;;18.80;98.00;19.20;99443.00;;;;339987;28;96725;-89
2023/07/27 00:46:54;;;;;;;;;;;18.80;97.90;19.10;99442.00;;;;337993;28;83538;-89
2023/07/27 00:47:06;;;;;;;;;;;18.80;98.00;19.00;99445.00;;;;335988;28;95666;-89
2023/07/27 00:47:19;;;;;;;;;;;18.80;98.00;19.00;99434.00;;;;340737;28;83359;-89
2023/07/27 00:47:31;;;;;;;;;;;18.80;98.10;19.00;99442.00;;;;338452;28;97676;-89
2023/07/27 00:47:42;;;;;;;;;;;18.80;98.00;19.00;99439.00;;;;338070;28;83316;-89
2023/07/27 00:47:54;;;;;;;;;;;18.80;98.20;19.00;99452.00;;;;335848;28;96347;-89
2023/07/27 00:48:08;;;;;;;;;;;18.80;98.20;18.90;99444.00;;;;338142;28;83402;-88
2023/07/27 00:48:20;;;;;;;;;;;18.80;98.30;18.90;99439.00;;;;338686;28;96427;-89
2023/07/27 00:48:32;;;;;;;;;;;18.80;98.40;18.90;99444.00;;;;338179;28;83338;-89
2023/07/27 00:48:44;;;;;;;;;;;18.80;98.30;19.00;99444.00;;;;337295;28;96604;-89
2023/07/27 00:48:55;;;;;;;;;;;18.80;98.10;19.00;99442.00;;;;337969;28;83596;-89
2023/07/27 00:49:07;;;;;;;;;;;18.80;98.00;18.90;99441.00;;;;334700;29;96435;-88
2023/07/27 00:49:19;;;;;;;;;;;18.80;98.10;18.90;99444.00;;;;339510;28;83381;-89
2023/07/27 00:49:31;;;;;;;;;;;18.80;98.20;18.80;99444.00;;;;337210;28;95527;-89
2023/07/27 00:49:43;;;;;;;;;;;18.80;98.20;18.80;99443.00;;;;338167;28;82613;-89
2023/07/27 00:49:55;;;;;;;;;;;18.80;98.50;18.80;99444.00;;;;337413;28;95153;-89
2023/07/27 00:50:07;;;;;;;;;;;18.80;98.40;18.90;99443.00;;;;336692;28;83445;-89
2023/07/27 00:50:18;;;;;;;;;;;18.80;98.20;18.90;99437.00;;;;337222;28;97164;-89
2023/07/27 00:50:32;;;;;;;;;;;18.80;98.40;18.80;99435.00;;;;336782;28;82506;-88
2023/07/27 00:50:44;;;;;;;;;;;18.80;98.70;18.80;99438.00;;;;337400;28;95215;-89
2023/07/27 00:50:56;;;;;;;;;;;18.80;98.40;18.70;99445.00;;;;338030;28;82576;-88
2023/07/27 00:51:08;;;;;;;;;;;18.70;98.40;18.60;99443.00;;;;337291;28;96610;-88
2023/07/27 00:51:19;;;;;;;;;;;18.70;98.50;18.80;99435.00;;;;336806;28;83406;-89
2023/07/27 00:51:41;;;;;;;;;;;18.70;98.50;18.80;99439.00;;;;334507;29;98130;-89
2023/07/27 00:51:53;;;;;;;;;;;18.70;98.30;18.70;99451.00;;;;335358;29;82522;-89
2023/07/27 00:52:07;;;;;;;;;;;18.70;98.40;18.50;99450.00;;;;336114;28;93775;-89
2023/07/27 00:52:19;;;;;;;;;;;18.70;98.40;18.70;99447.00;;;;336805;28;83592;-88
2023/07/27 00:52:31;;;;;;;;;;;18.70;98.40;18.80;99439.00;;;;336011;28;96837;-89
2023/07/27 00:52:43;;;;;;;;;;;18.70;98.30;18.90;99441.00;;;;338103;28;83367;-89
2023/07/27 00:52:54;;;;;;;;;;;18.70;98.30;18.90;99440.00;;;;337186;28;95584;-89
2023/07/27 00:53:07;;;;;;;;;;;18.70;98.30;18.80;99446.00;;;;338183;28;82528;-89
2023/07/27 00:53:19;;;;;;;;;;;18.70;98.40;18.70;99444.00;;;;337388;28;96543;-89
2023/07/27 00:53:31;;;;;;;;;;;18.70;98.50;18.60;99446.00;;;;338015;28;83454;-89
2023/07/27 00:53:42;;;;;;;;;;;18.70;98.40;18.50;99438.00;;;;335935;28;96567;-89
2023/07/27 00:53:54;;;;;;;;;;;18.60;98.40;18.50;99438.00;;;;336695;28;82514;-89
2023/07/27 00:54:06;;;;;;;;;;;18.60;98.50;18.40;99440.00;;;;337265;28;96687;-88
2023/07/27 00:54:18;;;;;;;;;;;18.60;98.40;18.50;99442.00;;;;336667;28;83460;-89
2023/07/27 00:54:30;;;;;;;;;;;18.60;98.50;18.50;99446.00;;;;336029;28;96062;-89
2023/07/27 00:54:41;;;;;;;;;;;18.60;98.60;18.50;99439.00;;;;338165;28;82404;-89
2023/07/27 00:54:54;;;;;;;;;;;18.60;98.60;18.50;99450.00;;;;337293;28;96371;-89
2023/07/27 00:55:06;;;;;;;;;;;18.60;98.60;18.40;99449.00;;;;336821;28;83510;-89
2023/07/27 00:55:18;;;;;;;;;;;18.60;98.70;18.40;99449.00;;;;337342;28;95475;-89
2023/07/27 00:55:30;;;;;;;;;;;18.60;98.70;18.40;99447.00;;;;336835;28;82367;-89
2023/07/27 00:55:42;;;;;;;;;;;18.60;98.70;18.30;99454.00;;;;335899;28;96575;-89
2023/07/27 00:55:53;;;;;;;;;;;18.50;98.60;18.30;99450.00;;;;338073;28;83435;-89
2023/07/27 00:56:05;;;;;;;;;;;18.50;98.60;18.30;99448.00;;;;337354;28;95593;-88
2023/07/27 00:56:17;;;;;;;;;;;18.50;98.60;18.50;99449.00;;;;339250;28;83737;-89
2023/07/27 00:56:29;;;;;;;;;;;18.50;98.60;18.60;99445.00;;;;337326;28;97467;-89
2023/07/27 00:56:42;;;;;;;;;;;18.50;98.50;18.60;99449.00;;;;339414;28;83411;-89
2023/07/27 00:56:53;;;;;;;;;;;18.50;98.50;18.60;99443.00;;;;337310;28;92964;-89
2023/07/27 00:57:06;;;;;;;;;;;18.50;98.40;18.60;99440.00;;;;337977;28;83561;-89
2023/07/27 00:57:18;;;;;;;;;;;18.50;98.40;18.50;99440.00;;;;337331;28;95306;-89
2023/07/27 00:57:30;;;;;;;;;;;18.50;98.50;18.50;99441.00;;;;336710;28;82507;-89
2023/07/27 00:57:41;;;;;;;;;;;18.50;98.50;18.60;99447.00;;;;335919;28;97626;-88
2023/07/27 00:57:53;;;;;;;;;;;18.50;98.40;18.50;99446.00;;;;338054;28;84150;-88
2023/07/27 00:58:05;;;;;;;;;;;18.50;98.40;18.50;99444.00;;;;337275;28;97000;-89
2023/07/27 00:58:17;;;;;;;;;;;18.50;98.60;18.40;99445.00;;;;339271;28;83582;-88
2023/07/27 00:58:29;;;;;;;;;;;18.40;98.70;18.40;99443.00;;;;336008;28;96568;-89
2023/07/27 00:58:40;;;;;;;;;;;18.50;98.70;18.40;99445.00;;;;336729;28;83502;-88
2023/07/27 00:58:52;;;;;;;;;;;18.50;98.80;18.40;99447.00;;;;337223;28;96517;-89
2023/07/27 00:59:04;;;;;;;;;;;18.50;98.80;18.40;99450.00;;;;336743;28;83468;-89
2023/07/27 00:59:16;;;;;;;;;;;18.40;98.90;18.50;99442.00;;;;334622;29;94286;-89